Time;durP1;ratioP1;P1;durP2;ratioP2;P2;SDS_P1;SDS_P2;PMS_P1;PMS_P2;Temp;Humidity;BMP_temperature;BMP_pressure;BME280_temperature;BME280_humidity;BME280_pressure;Samples;Min_cycle;Max_cycle;Signal;HPM_P1;HPM_P2
2022/10/08 00:00:50;;;;;;;66.40;25.00;;;9.30;1.00;;;;;;4936484;29;20686;-92
2022/10/08 00:03:19;;;;;;;66.17;25.03;;;9.30;1.00;;;;;;4936101;29;20204;-91
2022/10/08 00:05:56;;;;;;;66.73;25.00;;;9.30;1.00;;;;;;4936501;29;20197;-91
2022/10/08 00:08:25;;;;;;;65.97;25.17;;;9.30;1.00;;;;;;4936037;29;20188;-92
2022/10/08 00:10:53;;;;;;;63.97;24.63;;;9.30;1.00;;;;;;4935919;29;20272;-92
2022/10/08 00:13:21;;;;;;;72.17;25.77;;;9.30;1.00;;;;;;4935841;29;20197;-92
2022/10/08 00:15:47;;;;;;;;;;;9.30;1.00;;;;;;4936417;29;20240;-91
2022/10/08 00:18:14;;;;;;;70.83;25.70;;;9.30;1.00;;;;;;4936196;29;20059;-90
2022/10/08 00:20:42;;;;;;;66.83;25.13;;;9.30;1.00;;;;;;4936009;29;20209;-91
2022/10/08 00:23:09;;;;;;;66.30;25.13;;;9.30;1.00;;;;;;4936289;29;20200;-91
2022/10/08 00:25:41;;;;;;;65.27;24.83;;;9.30;1.00;;;;;;4936386;29;20652;-90
2022/10/08 00:28:08;;;;;;;73.53;25.97;;;9.30;1.00;;;;;;4935815;29;20613;-92
2022/10/08 00:30:38;;;;;;;74.47;26.27;;;9.30;1.00;;;;;;4936201;29;20204;-91
2022/10/08 00:33:05;;;;;;;69.60;25.87;;;9.30;1.00;;;;;;4936114;29;20211;-91
2022/10/08 00:35:38;;;;;;;65.83;24.87;;;9.30;1.00;;;;;;4936016;29;20200;-91
2022/10/08 00:38:06;;;;;;;66.30;25.00;;;9.30;1.00;;;;;;4937430;29;20255;-92
2022/10/08 00:40:43;;;;;;;67.97;25.33;;;9.30;1.00;;;;;;4939759;29;20207;-91
2022/10/08 00:43:14;;;;;;;66.13;24.87;;;9.30;1.00;;;;;;4939965;29;20200;-91
2022/10/08 00:45:43;;;;;;;75.47;26.67;;;9.30;1.00;;;;;;4939781;29;20216;-91
2022/10/08 00:48:13;;;;;;;71.90;25.97;;;9.30;1.00;;;;;;4920728;29;20220;-91
2022/10/08 00:50:40;;;;;;;67.33;24.77;;;9.30;1.00;;;;;;4921083;29;20192;-91
2022/10/08 00:53:09;;;;;;;67.73;25.20;;;9.40;1.00;;;;;;4920920;29;20594;-91
2022/10/08 00:55:40;;;;;;;66.87;25.10;;;9.30;1.00;;;;;;4920774;29;20634;-91
2022/10/08 00:58:13;;;;;;;62.73;24.10;;;9.40;1.00;;;;;;4921158;29;20209;-90
2022/10/08 01:00:40;;;;;;;62.63;24.20;;;9.40;1.00;;;;;;4920980;29;20200;-91
2022/10/08 01:03:08;;;;;;;65.40;24.73;;;9.40;1.00;;;;;;4920505;29;20689;-92
2022/10/08 01:05:44;;;;;;;64.73;24.50;;;9.40;1.00;;;;;;4936006;29;20211;-90
2022/10/08 01:08:21;;;;;;;64.43;24.73;;;9.40;1.00;;;;;;4939902;29;20260;-91
2022/10/08 01:10:57;;;;;;;64.73;24.70;;;9.40;1.00;;;;;;4939481;29;20200;-91
2022/10/08 01:13:38;;;;;;;65.43;24.93;;;9.40;1.00;;;;;;4939361;29;20208;-91
2022/10/08 01:16:16;;;;;;;63.10;24.23;;;9.40;1.00;;;;;;4939228;29;20212;-91
2022/10/08 01:18:50;;;;;;;65.73;24.97;;;9.40;1.00;;;;;;4939132;29;20191;-91
2022/10/08 01:21:26;;;;;;;65.27;24.73;;;9.40;1.00;;;;;;4939374;29;20631;-91
2022/10/08 01:24:16;;;;;;;64.57;24.70;;;9.40;1.00;;;;;;4939114;29;20204;-91
2022/10/08 01:26:54;;;;;;;67.70;25.30;;;9.40;1.00;;;;;;4939245;29;20201;-91
2022/10/08 01:29:27;;;;;;;66.50;25.00;;;9.40;1.00;;;;;;4939094;29;20189;-91
2022/10/08 01:32:02;;;;;;;68.33;25.37;;;9.50;1.00;;;;;;4939047;29;20211;-92
2022/10/08 01:34:36;;;;;;;66.30;24.97;;;9.40;1.00;;;;;;4939323;29;20200;-92
2022/10/08 01:37:07;;;;;;;64.37;24.53;;;9.40;1.00;;;;;;4938545;29;20239;-92
2022/10/08 01:39:38;;;;;;;66.03;24.87;;;9.40;1.00;;;;;;4939119;29;20267;-92
2022/10/08 01:42:08;;;;;;;67.47;25.10;;;9.40;1.00;;;;;;4939061;29;20194;-92
2022/10/08 01:44:41;;;;;;;66.93;24.73;;;9.40;1.00;;;;;;4938597;29;20207;-91
2022/10/08 01:47:11;;;;;;;77.07;26.37;;;9.40;1.00;;;;;;4939008;29;20195;-91
2022/10/08 01:49:43;;;;;;;80.77;27.07;;;9.40;1.00;;;;;;4938578;29;20201;-92
2022/10/08 01:52:13;;;;;;;79.07;26.97;;;9.40;1.00;;;;;;4939118;29;20544;-91
2022/10/08 01:54:44;;;;;;;78.07;26.87;;;9.40;1.00;;;;;;4938898;29;20212;-91
2022/10/08 01:57:12;;;;;;;75.47;26.37;;;9.40;1.00;;;;;;4939097;29;20267;-91
2022/10/08 01:59:45;;;;;;;73.93;26.17;;;9.40;1.00;;;;;;4938459;29;20201;-91
2022/10/08 02:02:17;;;;;;;74.70;26.20;;;9.40;1.00;;;;;;4938725;29;20208;-91
2022/10/08 02:04:44;;;;;;;73.33;26.07;;;9.40;1.00;;;;;;4938884;29;20239;-92
2022/10/08 02:07:17;;;;;;;71.30;25.80;;;9.40;1.00;;;;;;4938583;29;20598;-91
2022/10/08 02:09:46;;;;;;;71.57;25.53;;;9.50;1.00;;;;;;4919534;29;20215;-92
2022/10/08 02:12:13;;;;;;;64.20;24.50;;;9.50;1.00;;;;;;4919797;29;20268;-92
2022/10/08 02:14:47;;;;;;;69.03;25.40;;;9.50;1.00;;;;;;4919279;29;20209;-91
2022/10/08 02:17:28;;;;;;;69.23;25.57;;;9.50;1.00;;;;;;4919293;29;20221;-92
2022/10/08 02:20:00;;;;;;;67.90;25.27;;;9.50;1.00;;;;;;4919279;29;20189;-92
2022/10/08 02:22:32;;;;;;;67.90;25.23;;;9.50;1.00;;;;;;4919252;29;20182;-92
2022/10/08 02:25:06;;;;;;;67.27;25.17;;;9.40;1.00;;;;;;4919108;29;20189;-91
2022/10/08 02:27:42;;;;;;;66.37;24.93;;;9.40;1.00;;;;;;4919265;29;20610;-91
2022/10/08 02:30:12;;;;;;;66.73;24.93;;;9.40;1.00;;;;;;4919442;29;20217;-92
2022/10/08 02:32:49;;;;;;;65.50;24.73;;;9.40;1.00;;;;;;4918977;29;20205;-92
2022/10/08 02:35:21;;;;;;;65.47;24.60;;;9.40;1.00;;;;;;4919150;29;20652;-91
2022/10/08 02:37:55;;;;;;;66.87;25.00;;;9.40;1.00;;;;;;4919018;29;20578;-92
2022/10/08 02:40:24;;;;;;;67.27;25.30;;;9.40;1.00;;;;;;4919021;29;20205;-92
2022/10/08 02:42:56;;;;;;;67.27;24.97;;;9.40;1.00;;;;;;4922240;29;20707;-92
2022/10/08 02:45:29;;;;;;;68.77;25.43;;;9.40;1.00;;;;;;4937837;29;20208;-91
2022/10/08 02:48:03;;;;;;;69.20;25.23;;;9.40;1.00;;;;;;4937869;29;20200;-91
2022/10/08 02:50:33;;;;;;;68.60;25.30;;;9.50;1.00;;;;;;4937947;29;20204;-92
2022/10/08 02:53:01;;;;;;;67.33;25.13;;;9.40;1.00;;;;;;4937698;29;20200;-91
2022/10/08 02:55:36;;;;;;;69.93;25.43;;;9.40;1.00;;;;;;4937668;29;20682;-91
2022/10/08 02:58:09;;;;;;;69.17;25.27;;;9.40;1.00;;;;;;4937162;29;20537;-92
2022/10/08 03:00:43;;;;;;;68.80;25.07;;;9.50;1.00;;;;;;4932730;29;20568;-92
2022/10/08 03:03:13;;;;;;;73.47;26.00;;;9.50;1.00;;;;;;4918695;29;20189;-92
2022/10/08 03:05:42;;;;;;;66.87;25.13;;;9.40;1.00;;;;;;4931115;29;20200;-92
2022/10/08 03:08:14;;;;;;;68.63;25.40;;;9.40;1.00;;;;;;4937710;29;20673;-92
2022/10/08 03:10:43;;;;;;;70.27;25.60;;;9.40;1.00;;;;;;4937632;29;20248;-91
2022/10/08 03:13:12;;;;;;;71.57;25.90;;;9.40;1.00;;;;;;4937421;29;20192;-92
2022/10/08 03:15:43;;;;;;;70.83;25.80;;;9.40;1.00;;;;;;4937336;29;20668;-92
2022/10/08 03:18:12;;;;;;;67.67;25.10;;;9.40;1.00;;;;;;4937313;29;20239;-92
2022/10/08 03:20:43;;;;;;;68.20;25.00;;;9.40;1.00;;;;;;4937333;29;20212;-92
2022/10/08 03:23:12;;;;;;;66.97;25.00;;;9.40;1.00;;;;;;4937120;29;20221;-92
2022/10/08 03:25:39;;;;;;;69.57;25.57;;;9.40;1.00;;;;;;4932129;29;20204;-91
2022/10/08 03:28:06;;;;;;;68.23;25.17;;;9.40;1.00;;;;;;4918001;29;20208;-92
2022/10/08 03:30:33;;;;;;;67.90;25.23;;;9.30;1.00;;;;;;4918078;29;20213;-92
2022/10/08 03:33:02;;;;;;;67.67;24.73;;;9.40;1.00;;;;;;4918160;29;20204;-92
2022/10/08 03:35:29;;;;;;;70.17;25.57;;;9.30;1.00;;;;;;4917587;29;20197;-92
2022/10/08 03:37:56;;;;;;;65.07;24.77;;;9.30;1.00;;;;;;4918001;29;20692;-91
2022/10/08 03:40:23;;;;;;;61.87;24.13;;;9.30;1.00;;;;;;4917572;29;20193;-92
2022/10/08 03:42:51;;;;;;;59.77;23.80;;;9.40;1.00;;;;;;4926903;29;20209;-92
2022/10/08 03:45:21;;;;;;;58.70;23.63;;;9.40;1.00;;;;;;4937090;29;20674;-91
2022/10/08 03:48:00;;;;;;;55.40;23.00;;;9.40;1.00;;;;;;4937398;29;20196;-93
2022/10/08 03:50:51;;;;;;;55.77;23.10;;;9.40;1.00;;;;;;4937081;29;20267;-93
2022/10/08 05:10:53;;;;;;;75.37;39.37;;;9.10;1.00;;;;;;4580466;31;20248;-93
2022/10/08 05:13:21;;;;;;;87.53;42.43;;;9.00;1.00;;;;;;4580839;31;20350;-91
2022/10/08 05:16:01;;;;;;;106.83;49.23;;;9.00;1.00;;;;;;4628204;30;20235;-92
2022/10/08 05:18:28;;;;;;;102.03;51.60;;;9.00;1.00;;;;;;4690990;30;20232;-92
2022/10/08 05:20:56;;;;;;;97.77;49.10;;;9.00;1.00;;;;;;4766853;29;20597;-92
2022/10/08 05:30:29;;;;;;;73.20;43.00;;;8.90;1.00;;;;;;4892374;29;20221;-95
2022/10/08 05:33:45;;;;;;;113.33;52.23;;;8.90;1.00;;;;;;4896087;29;20233;-94
2022/10/08 05:36:51;;;;;;;96.10;46.97;;;8.90;1.00;;;;;;4897236;29;20283;-96
2022/10/08 05:54:48;;;;;;;94.47;52.67;;;8.80;1.00;;;;;;4819508;29;20200;-93
2022/10/08 06:12:47;;;;;;;178.30;59.20;;;9.30;63.70;;;;;;5688417;23;20223;-95
2022/10/08 06:23:23;;;;;;;151.30;54.47;;;9.40;1.00;;;;;;4865596;29;20270;-96
2022/10/08 06:25:55;;;;;;;185.10;60.07;;;9.50;1.00;;;;;;4850572;29;20683;-92
2022/10/08 06:32:34;;;;;;;144.03;53.30;;;9.80;1.00;;;;;;4894254;29;20189;-93
2022/10/08 06:35:02;;;;;;;128.07;50.07;;;9.90;1.00;;;;;;4892351;29;20202;-94
2022/10/08 06:37:29;;;;;;;103.37;45.93;;;10.10;1.00;;;;;;4889099;29;20644;-92
2022/10/08 06:40:25;;;;;;;100.43;48.83;;;10.30;2.00;;;;;;4946348;29;20201;-95
2022/10/08 06:42:53;;;;;;;143.80;43.23;;;10.50;47.10;;;;;;4935479;29;20238;-94
2022/10/08 06:52:44;;;;;;;122.77;37.27;;;11.80;99.90;;;;;;4873318;29;20247;-93
2022/10/08 07:02:31;;;;;;;151.57;35.90;;;14.60;72.30;;;;;;4824543;29;20253;-95
2022/10/08 07:08:55;;;;;;;147.60;34.77;;;14.20;1.00;;;;;;4839237;29;20198;-94
2022/10/08 07:14:27;;;;;;;144.00;34.40;;;13.50;1.00;;;;;;4904696;29;20233;-94
2022/10/08 07:16:57;;;;;;;141.73;34.13;;;13.20;1.00;;;;;;4927693;29;20195;-93
2022/10/08 07:22:42;;;;;;;144.77;34.37;;;12.80;1.00;;;;;;4920010;29;20216;-94
2022/10/08 07:25:38;;;;;;;144.03;34.13;;;12.70;1.00;;;;;;4926430;29;20100;-94
2022/10/08 08:21:50;;;;;;;127.57;33.17;;;16.40;1.00;;;;;;4913748;29;20209;-94
2022/10/08 08:28:34;;;;;;;131.80;33.40;;;17.10;1.00;;;;;;4893437;29;20201;-93
2022/10/08 08:33:58;;;;;;;38.03;23.90;;;18.50;1.00;;;;;;4910241;29;20123;-93
2022/10/08 08:43:02;;;;;;;;;;;19.80;1.00;;;;;;4830761;29;19929;-95
2022/10/08 08:45:45;;;;;;;;;;;;;;;;;;;;;
2022/10/08 09:16:19;;;;;;;;;;;23.00;1.00;;;;;;4945763;28;20189;-92
2022/10/08 09:22:22;;;;;;;36.58;34.50;;;23.60;1.00;;;;;;4890260;29;20217;-90
2022/10/08 09:36:31;;;;;;;32.83;31.00;;;23.70;1.00;;;;;;4890529;29;20300;-95
2022/10/08 09:39:53;;;;;;;29.92;28.25;;;23.70;1.00;;;;;;4895105;29;20228;-93
2022/10/08 09:43:00;;;;;;;32.57;30.67;;;23.60;1.00;;;;;;4836127;29;20237;-94
2022/10/08 10:02:13;;;;;;;29.00;27.35;;;22.20;1.00;;;;;;4948174;29;20208;-94
2022/10/08 10:05:21;;;;;;;26.65;24.92;;;22.10;1.00;;;;;;4930870;29;20187;-93
2022/10/08 10:11:32;;;;;;;24.05;22.27;;;21.90;1.00;;;;;;4916147;29;20196;-93
2022/10/08 10:14:15;;;;;;;33.80;23.05;;;21.60;1.00;;;;;;4943922;29;20201;-93
2022/10/08 10:19:47;;;;;;;45.08;16.33;;;21.20;1.00;;;;;;4946556;29;20257;-94
2022/10/08 10:22:27;;;;;;;62.28;20.70;;;21.00;1.00;;;;;;4950506;29;20211;-95
2022/10/08 10:34:22;;;;;;;82.13;21.17;;;20.00;1.00;;;;;;5325632;23;20635;-95
2022/10/08 10:39:45;;;;;;;62.90;20.40;;;19.90;1.00;;;;;;4950741;29;20281;-95
2022/10/08 10:42:18;;;;;;;63.33;18.27;;;20.00;1.00;;;;;;4950177;29;20215;-95
2022/10/08 10:55:21;;;;;;;62.55;18.73;;;20.20;1.00;;;;;;4860936;29;20235;-95
2022/10/08 10:58:28;;;;;;;91.82;25.58;;;20.20;1.00;;;;;;4894173;29;20211;-93
2022/10/08 11:01:16;;;;;;;56.05;18.02;;;20.30;1.00;;;;;;4901385;29;20209;-92
2022/10/08 11:04:10;;;;;;;82.30;31.88;;;20.30;1.00;;;;;;4892959;29;20194;-93
2022/10/08 11:07:06;;;;;;;63.92;28.20;;;20.10;1.00;;;;;;4895853;29;20277;-93
2022/10/08 11:09:41;;;;;;;75.35;22.50;;;19.90;1.00;;;;;;4897074;29;20263;-92
2022/10/08 11:12:37;;;;;;;104.85;26.55;;;19.70;1.00;;;;;;4891397;29;20236;-94
2022/10/08 11:15:37;;;;;;;87.65;23.85;;;19.50;1.00;;;;;;4889126;29;20708;-95
2022/10/08 11:18:56;;;;;;;126.63;29.13;;;19.30;1.00;;;;;;4814596;29;20576;-95
2022/10/08 11:42:18;;;;;;;142.70;35.47;;;19.10;1.00;;;;;;6025548;23;20243;31
2022/10/08 11:55:35;;;;;;;;;;;19.10;1.00;;;;;;4911883;28;20059;-96
2022/10/08 12:13:01;;;;;;;131.38;33.67;;;19.10;1.00;;;;;;4875082;29;20209;-93
2022/10/08 12:18:46;;;;;;;130.77;36.17;;;19.00;1.00;;;;;;5897199;23;20253;-91
2022/10/08 12:21:45;;;;;;;130.90;34.05;;;19.00;1.00;;;;;;4951758;28;20198;-95
2022/10/08 12:27:31;;;;;;;127.18;33.45;;;19.10;1.00;;;;;;5516633;23;20233;-95
2022/10/08 12:40:40;;;;;;;127.82;33.40;;;19.30;1.00;;;;;;4950259;29;20211;-92
2022/10/08 12:44:00;;;;;;;128.77;33.53;;;19.30;1.00;;;;;;4951903;28;20205;-93
2022/10/08 12:49:55;;;;;;;134.70;33.75;;;19.20;1.00;;;;;;4918782;29;20204;-92
2022/10/08 12:52:41;;;;;;;135.38;33.83;;;19.10;1.00;;;;;;4941513;29;20610;-92
2022/10/08 13:06:00;;;;;;;125.10;33.50;;;18.50;1.00;;;;;;4950290;29;20214;-90
2022/10/08 13:09:04;;;;;;;115.57;32.65;;;18.20;1.00;;;;;;4945753;29;20237;-90
2022/10/08 13:15:37;;;;;;;131.80;34.20;;;17.80;1.00;;;;;;4946162;29;20293;-94
2022/10/08 13:22:23;;;;;;;132.00;33.70;;;17.30;1.00;;;;;;4870360;29;20766;-94
2022/10/08 13:25:02;;;;;;;131.20;33.47;;;17.10;1.00;;;;;;4874047;29;20208;-94
2022/10/08 13:31:42;;;;;;;133.95;34.50;;;17.10;1.00;;;;;;4871499;29;20296;-93
2022/10/08 13:38:16;;;;;;;134.27;33.55;;;16.80;1.00;;;;;;4924283;29;20223;-93
2022/10/08 13:44:08;;;;;;;135.07;34.90;;;16.80;1.00;;;;;;4874315;29;20210;-91
2022/10/08 13:46:40;;;;;;;136.48;34.63;;;16.80;1.00;;;;;;4882635;29;20190;-92
2022/10/08 13:49:21;;;;;;;136.60;34.13;;;16.80;1.00;;;;;;4938240;29;20213;-94
2022/10/08 13:56:04;;;;;;;129.85;33.78;;;16.80;1.00;;;;;;4924608;29;20208;-92
2022/10/08 13:59:04;;;;;;;128.93;33.92;;;16.70;1.00;;;;;;4910448;29;20224;-94
2022/10/08 14:01:35;;;;;;;126.70;33.97;;;16.60;1.00;;;;;;4849250;29;20260;-90
2022/10/08 14:04:03;;;;;;;114.50;31.58;;;16.50;1.00;;;;;;4954144;29;20196;-94
2022/10/08 14:09:57;;;;;;;;;;;16.40;1.00;;;;;;4901972;29;20069;-93
2022/10/08 14:12:34;;;;;;;115.38;33.08;;;16.30;1.00;;;;;;4878850;29;20181;-95
2022/10/08 14:15:05;;;;;;;;;;;16.20;1.00;;;;;;4889252;29;20250;-92
2022/10/08 14:20:39;;;;;;;112.13;31.33;;;16.00;1.00;;;;;;4896235;29;20505;-91
2022/10/08 14:23:07;;;;;;;;;;;15.90;1.00;;;;;;4938508;29;20205;-93
2022/10/08 14:25:37;;;;;;;106.50;31.15;;;15.90;1.00;;;;;;4941812;29;20402;-92
2022/10/08 14:28:06;;;;;;;107.28;31.05;;;15.80;1.00;;;;;;4942701;29;20232;-92
2022/10/08 14:30:33;;;;;;;99.43;30.25;;;15.80;1.00;;;;;;4933589;29;20209;-90
2022/10/08 14:33:01;;;;;;;96.53;29.85;;;15.80;1.00;;;;;;4947516;29;20211;-90
2022/10/08 14:35:28;;;;;;;99.60;30.38;;;15.80;1.00;;;;;;4937387;29;20203;-89
2022/10/08 14:37:56;;;;;;;100.50;30.52;;;15.70;1.00;;;;;;4937356;29;20214;-90
2022/10/08 14:40:24;;;;;;;101.38;30.83;;;15.60;1.00;;;;;;4937516;29;20228;-88
2022/10/08 14:43:12;;;;;;;97.70;29.95;;;15.50;1.00;;;;;;4953881;29;20211;-94
2022/10/08 14:45:39;;;;;;;102.45;32.28;;;15.40;1.00;;;;;;4941242;29;20580;-91
2022/10/08 14:48:06;;;;;;;98.95;29.77;;;15.30;1.00;;;;;;4935630;29;20220;-92
2022/10/08 14:50:43;;;;;;;104.55;31.10;;;15.30;1.00;;;;;;4944081;29;20203;-95
2022/10/08 14:53:10;;;;;;;105.40;30.88;;;15.20;1.00;;;;;;4939783;29;20559;-89
2022/10/08 14:55:37;;;;;;;103.30;30.60;;;15.10;1.00;;;;;;4936844;29;20217;-90
2022/10/08 14:58:33;;;;;;;101.97;30.85;;;15.00;1.00;;;;;;4950982;29;20199;-92
2022/10/08 15:01:00;;;;;;;94.82;31.15;;;14.90;1.00;;;;;;4941040;29;20203;-92
2022/10/08 15:03:27;;;;;;;95.45;29.67;;;14.90;1.00;;;;;;4939966;29;20212;-93
2022/10/08 15:05:58;;;;;;;91.13;28.98;;;14.80;1.00;;;;;;4939867;28;20200;-90
2022/10/08 15:08:25;;;;;;;90.13;29.30;;;14.80;1.00;;;;;;4936019;29;20659;-89
2022/10/08 15:10:52;;;;;;;94.70;30.05;;;14.80;1.00;;;;;;4953204;29;20639;-90
2022/10/08 15:13:21;;;;;;;92.20;29.50;;;14.70;1.00;;;;;;4945622;29;20209;-92
2022/10/08 15:15:48;;;;;;;94.13;30.00;;;14.70;1.00;;;;;;4928107;29;20203;-95
2022/10/08 15:20:53;;;;;;;86.80;28.48;;;14.60;1.00;;;;;;4897310;29;20704;-88
2022/10/08 15:23:21;;;;;;;94.53;30.77;;;14.60;1.00;;;;;;4901984;29;20200;-85
2022/10/08 15:25:55;;;;;;;94.93;29.80;;;14.50;1.00;;;;;;4900754;29;20261;-88
2022/10/08 15:28:28;;;;;;;94.20;29.67;;;14.50;1.00;;;;;;4902581;29;20189;-91
2022/10/08 15:31:02;;;;;;;100.13;30.63;;;14.50;1.00;;;;;;4899487;29;20198;-88
2022/10/08 15:33:38;;;;;;;96.80;32.83;;;14.50;1.00;;;;;;4900623;29;20208;-88
2022/10/08 15:36:15;;;;;;;105.90;31.50;;;14.50;1.00;;;;;;4903527;29;20201;-91
2022/10/08 15:38:43;;;;;;;92.47;30.90;;;14.50;1.00;;;;;;4898857;29;20204;-86
2022/10/08 15:41:17;;;;;;;85.60;29.65;;;14.50;1.00;;;;;;4912802;29;20198;-88
2022/10/08 15:43:58;;;;;;;89.75;30.05;;;14.50;1.00;;;;;;4923267;29;20193;-88
2022/10/08 15:46:29;;;;;;;88.57;30.50;;;14.50;1.00;;;;;;4899185;29;20205;-90
2022/10/08 15:48:57;;;;;;;102.75;30.95;;;14.50;1.00;;;;;;4901819;29;20213;-88
2022/10/08 15:51:24;;;;;;;83.07;28.33;;;14.40;1.00;;;;;;4902164;29;20206;-87
2022/10/08 15:53:54;;;;;;;83.25;28.27;;;14.30;1.00;;;;;;4919898;29;20208;-91
2022/10/08 15:56:28;;;;;;;86.20;28.58;;;14.20;1.00;;;;;;4909486;29;20233;-89
2022/10/08 15:59:03;;;;;;;84.45;28.48;;;14.10;1.00;;;;;;4902029;29;20288;-90
2022/10/08 16:01:30;;;;;;;87.63;28.55;;;14.00;1.00;;;;;;4901062;29;20255;-90
2022/10/08 16:03:58;;;;;;;86.38;28.45;;;13.90;1.00;;;;;;4903080;29;20272;-88
2022/10/08 16:06:32;;;;;;;81.43;27.88;;;13.80;1.00;;;;;;4902384;29;20285;-93
2022/10/08 16:09:12;;;;;;;84.00;28.05;;;13.70;1.00;;;;;;4903093;29;20205;-89
2022/10/08 16:11:41;;;;;;;82.90;28.02;;;13.60;1.00;;;;;;4900806;29;20194;-89
2022/10/08 16:14:20;;;;;;;82.28;27.83;;;13.40;1.00;;;;;;4914664;29;20212;-91
2022/10/08 16:17:07;;;;;;;87.25;28.77;;;13.30;1.00;;;;;;4920657;29;20123;-92
2022/10/08 16:19:46;;;;;;;89.60;29.23;;;13.20;1.00;;;;;;4920447;29;20292;-93
2022/10/08 16:22:13;;;;;;;97.97;30.37;;;13.10;1.00;;;;;;4899520;29;20204;-87
2022/10/08 16:24:40;;;;;;;97.50;30.10;;;13.00;1.00;;;;;;4899654;29;20247;-86
2022/10/08 16:27:09;;;;;;;92.23;28.67;;;12.90;1.00;;;;;;4889324;29;20617;-87
2022/10/08 16:29:37;;;;;;;90.73;27.93;;;12.80;1.00;;;;;;4895432;29;20195;-88
2022/10/08 16:32:04;;;;;;;88.20;27.07;;;12.70;1.00;;;;;;4894785;29;20610;-87
2022/10/08 16:34:32;;;;;;;88.73;27.40;;;12.60;1.00;;;;;;4895441;29;20206;-87
2022/10/08 16:37:00;;;;;;;90.27;28.20;;;12.60;1.00;;;;;;4898863;29;20194;-89
2022/10/08 16:39:28;;;;;;;90.30;28.07;;;12.60;1.00;;;;;;4897039;29;20253;-89
2022/10/08 16:41:55;;;;;;;87.47;27.70;;;12.60;1.00;;;;;;4900368;29;20190;-90
2022/10/08 16:44:22;;;;;;;87.30;27.97;;;12.60;1.00;;;;;;4896901;29;20231;-88
2022/10/08 16:46:52;;;;;;;88.07;28.10;;;12.60;1.00;;;;;;4896695;29;20206;-89
2022/10/08 16:49:22;;;;;;;84.83;27.50;;;12.60;1.00;;;;;;4897539;29;20190;-88
2022/10/08 16:51:49;;;;;;;83.20;27.43;;;12.60;1.00;;;;;;4896592;29;20205;-89
2022/10/08 16:54:17;;;;;;;79.57;26.53;;;12.60;1.00;;;;;;4896840;29;20194;-89
2022/10/08 16:56:45;;;;;;;81.17;27.20;;;12.60;1.00;;;;;;4899583;29;20208;-89
2022/10/08 16:59:15;;;;;;;80.33;27.10;;;12.60;1.00;;;;;;4896540;29;20565;-88
2022/10/08 17:01:44;;;;;;;78.83;26.63;;;12.70;1.00;;;;;;4896408;29;20205;-89
2022/10/08 17:04:14;;;;;;;80.27;27.00;;;12.70;1.00;;;;;;4896757;29;20198;-88
2022/10/08 17:06:41;;;;;;;79.90;26.60;;;12.70;1.00;;;;;;4883368;29;20205;-89
2022/10/08 17:09:09;;;;;;;79.00;26.43;;;12.70;1.00;;;;;;4896792;29;20205;-88
2022/10/08 17:11:36;;;;;;;81.30;26.90;;;12.70;1.00;;;;;;4896430;29;20201;-88
2022/10/08 17:14:04;;;;;;;86.20;28.07;;;12.60;1.00;;;;;;4903448;29;20205;-88
2022/10/08 17:16:32;;;;;;;89.00;28.40;;;12.60;1.00;;;;;;4904750;29;20660;-88
2022/10/08 17:19:00;;;;;;;90.40;28.40;;;12.50;1.00;;;;;;4895736;29;20198;-88
2022/10/08 17:21:30;;;;;;;91.67;28.60;;;12.40;1.00;;;;;;4898533;29;20707;-88
2022/10/08 17:23:58;;;;;;;94.10;29.13;;;12.30;1.00;;;;;;4888336;29;20189;-89
2022/10/08 17:26:26;;;;;;;93.77;28.93;;;12.30;1.00;;;;;;4899972;29;20198;-90
2022/10/08 17:28:54;;;;;;;95.73;29.20;;;12.30;1.00;;;;;;4895390;29;20280;-88
2022/10/08 17:31:27;;;;;;;101.47;30.23;;;12.20;1.00;;;;;;4894741;29;20214;-91
2022/10/08 17:33:55;;;;;;;105.67;30.93;;;12.00;1.00;;;;;;4894451;29;20285;-89
2022/10/08 17:36:25;;;;;;;108.87;30.90;;;11.90;1.00;;;;;;4895727;29;20234;-89
2022/10/08 17:38:56;;;;;;;112.57;31.40;;;11.80;1.00;;;;;;4894561;29;20289;-89
2022/10/08 17:41:25;;;;;;;116.83;31.73;;;11.70;1.00;;;;;;4894816;29;20612;-87
2022/10/08 17:43:54;;;;;;;115.97;31.57;;;11.70;1.00;;;;;;4893404;29;20604;-88
2022/10/08 17:46:24;;;;;;;113.97;31.40;;;11.60;1.00;;;;;;4895622;29;20556;-91
2022/10/08 17:48:51;;;;;;;112.53;30.93;;;11.60;1.00;;;;;;4893526;29;20205;-90
2022/10/08 17:51:24;;;;;;;113.87;31.43;;;11.50;1.00;;;;;;4895351;29;20201;-92
2022/10/08 17:53:57;;;;;;;115.33;31.70;;;11.50;1.00;;;;;;4893475;29;20194;-87
2022/10/08 17:56:26;;;;;;;115.23;31.47;;;11.40;1.00;;;;;;4894431;29;20622;-88
2022/10/08 17:58:54;;;;;;;116.67;31.50;;;11.40;1.00;;;;;;4892742;29;20235;-87
2022/10/08 18:01:24;;;;;;;117.00;31.57;;;11.40;1.00;;;;;;4881806;29;20222;-87
2022/10/08 18:03:53;;;;;;;122.67;32.53;;;11.30;1.00;;;;;;4887507;29;20122;-87
2022/10/08 18:06:21;;;;;;;120.97;32.27;;;11.30;1.00;;;;;;4881321;29;20251;-87
2022/10/08 18:08:48;;;;;;;117.37;31.87;;;11.30;1.00;;;;;;4891542;29;20201;-87
2022/10/08 18:11:17;;;;;;;116.00;31.83;;;11.30;1.00;;;;;;4891879;29;20216;-88
2022/10/08 18:13:44;;;;;;;117.03;31.67;;;11.30;1.00;;;;;;4890127;29;20680;-88
2022/10/08 18:16:13;;;;;;;115.40;31.40;;;11.30;1.00;;;;;;4888898;29;20190;-88
2022/10/08 18:18:41;;;;;;;116.93;31.37;;;11.30;1.00;;;;;;4883519;29;20209;-88
2022/10/08 18:21:10;;;;;;;115.90;31.47;;;11.30;1.00;;;;;;4895963;29;20234;-87
2022/10/08 18:23:40;;;;;;;113.67;31.47;;;11.20;1.00;;;;;;4899285;29;20198;-88
2022/10/08 18:26:09;;;;;;;119.40;31.90;;;11.20;1.00;;;;;;4899996;29;20198;-88
2022/10/08 18:28:38;;;;;;;122.83;32.30;;;11.20;1.00;;;;;;4898619;29;20251;-88
2022/10/08 18:31:06;;;;;;;124.47;32.53;;;11.10;1.00;;;;;;4898675;29;20220;-88
2022/10/08 18:33:34;;;;;;;126.97;32.67;;;11.10;1.00;;;;;;4899383;29;20205;-87
2022/10/08 18:36:13;;;;;;;126.70;32.73;;;11.00;1.00;;;;;;4900138;29;20205;-88
2022/10/08 18:38:41;;;;;;;125.90;32.80;;;11.00;1.00;;;;;;4901846;29;20657;-89
2022/10/08 18:41:13;;;;;;;122.87;32.30;;;11.00;1.00;;;;;;4899667;29;20708;-88
2022/10/08 18:43:41;;;;;;;122.00;32.00;;;11.00;1.00;;;;;;4898022;29;20209;-88
2022/10/08 18:46:09;;;;;;;119.97;31.60;;;11.00;1.00;;;;;;4897200;29;20194;-88
2022/10/08 18:48:37;;;;;;;122.47;32.17;;;11.00;1.00;;;;;;4897859;29;20247;-87
2022/10/08 18:51:06;;;;;;;122.10;32.17;;;10.90;1.00;;;;;;4897139;29;20194;-88
2022/10/08 18:53:34;;;;;;;121.53;31.90;;;10.90;1.00;;;;;;4898045;29;20201;-89
2022/10/08 18:56:02;;;;;;;124.67;32.53;;;10.90;1.00;;;;;;4895024;29;20239;-88
2022/10/08 18:58:29;;;;;;;126.30;32.90;;;10.90;1.00;;;;;;4889384;29;20198;-87
2022/10/08 19:00:58;;;;;;;125.00;32.80;;;10.90;1.00;;;;;;4887162;29;20222;-88
2022/10/08 19:03:26;;;;;;;123.57;32.73;;;10.90;1.00;;;;;;4890036;29;20608;-88
2022/10/08 19:05:53;;;;;;;127.17;33.50;;;10.90;1.00;;;;;;4895957;29;20206;-88
2022/10/08 19:08:20;;;;;;;124.73;32.50;;;10.80;1.00;;;;;;4891719;29;20217;-89
2022/10/08 19:10:48;;;;;;;122.83;32.83;;;10.80;1.00;;;;;;4893844;29;20203;-88
2022/10/08 19:13:16;;;;;;;121.40;32.27;;;10.70;1.00;;;;;;4892976;29;20213;-89
2022/10/08 19:15:43;;;;;;;124.30;32.63;;;10.70;1.00;;;;;;4906069;29;20660;-89
2022/10/08 19:18:11;;;;;;;128.23;34.33;;;10.70;1.00;;;;;;4902948;29;20214;-88
2022/10/08 19:20:38;;;;;;;125.20;32.97;;;10.60;1.00;;;;;;4896032;29;20230;-89
2022/10/08 19:23:06;;;;;;;125.27;32.97;;;10.50;1.00;;;;;;4892470;29;20673;-88
2022/10/08 19:25:35;;;;;;;121.07;32.17;;;10.40;1.00;;;;;;4905041;29;20285;-88
2022/10/08 19:28:02;;;;;;;119.50;32.10;;;10.30;1.00;;;;;;4902766;29;20206;-89
2022/10/08 19:30:33;;;;;;;120.83;33.13;;;10.30;1.00;;;;;;4900698;29;20205;-87
2022/10/08 19:33:00;;;;;;;124.37;33.37;;;10.20;1.00;;;;;;4900759;29;20213;-88
2022/10/08 19:35:30;;;;;;;122.87;32.67;;;10.10;1.00;;;;;;4897043;29;20656;-89
2022/10/08 19:37:58;;;;;;;124.93;33.20;;;10.10;1.00;;;;;;4888555;29;20190;-89
2022/10/08 19:40:26;;;;;;;115.97;31.57;;;10.00;1.00;;;;;;4892551;29;20224;-88
2022/10/08 19:42:53;;;;;;;109.57;30.83;;;10.00;1.00;;;;;;4891172;29;20197;-88
2022/10/08 19:45:20;;;;;;;111.67;30.93;;;9.90;1.00;;;;;;4900314;29;20542;-88
2022/10/08 19:47:47;;;;;;;111.70;30.87;;;9.90;1.00;;;;;;4895174;29;20238;-88
2022/10/08 19:50:14;;;;;;;108.23;30.20;;;9.80;1.00;;;;;;4897934;29;20205;-88
2022/10/08 19:52:43;;;;;;;111.37;30.83;;;9.80;1.00;;;;;;4898295;29;20246;-88
2022/10/08 19:55:10;;;;;;;109.90;30.60;;;9.70;1.00;;;;;;4916390;29;20257;-88
2022/10/08 19:57:38;;;;;;;111.67;30.83;;;9.70;1.00;;;;;;4902642;29;20590;-88
2022/10/08 20:00:07;;;;;;;107.37;30.23;;;9.70;1.00;;;;;;4898077;29;20279;-86
2022/10/08 20:02:34;;;;;;;109.93;30.57;;;9.60;1.00;;;;;;4898166;29;20245;-89
2022/10/08 20:05:02;;;;;;;111.33;30.93;;;9.60;1.00;;;;;;4900996;29;20679;-89
2022/10/08 20:07:29;;;;;;;106.33;30.27;;;9.50;1.00;;;;;;4900809;29;20240;-88